createdAt,value
2023-02-05T00:00:19.760Z,102077.01
2023-02-05T00:03:07.723Z,102069.52
2023-02-05T00:05:35.865Z,102068.89
2023-02-05T00:08:03.970Z,102069.62
2023-02-05T00:10:31.931Z,102073.52
2023-02-05T00:12:59.773Z,102074.85
2023-02-05T00:15:27.999Z,102083.05
2023-02-05T00:17:55.945Z,102084.69
2023-02-05T00:20:23.892Z,102085.70
2023-02-05T00:22:51.774Z,102086.90
2023-02-05T00:25:19.687Z,102088.80
2023-02-05T00:27:47.698Z,102089.80
2023-02-05T00:30:15.623Z,102090.41
2023-02-05T00:32:43.630Z,102092.82
2023-02-05T00:35:11.714Z,102087.38
2023-02-05T00:37:39.765Z,102085.04
2023-02-05T00:40:08.014Z,102084.95
2023-02-05T00:42:36.175Z,102088.95
2023-02-05T00:45:04.377Z,102089.87
2023-02-05T00:47:32.312Z,102085.37
2023-02-05T00:50:00.242Z,102091.68
2023-02-05T00:52:28.135Z,102089.76
2023-02-05T00:54:56.088Z,102088.64
2023-02-05T00:57:24.815Z,102087.32
2023-02-05T00:59:53.873Z,102085.94
2023-02-05T01:02:24.073Z,102091.55
2023-02-05T01:04:52.809Z,102087.94
2023-02-05T01:07:20.912Z,102092.65
2023-02-05T01:09:49.645Z,102089.57
2023-02-05T01:12:17.618Z,102087.92
2023-02-05T01:14:45.863Z,102087.67
2023-02-05T01:17:13.942Z,102090.55
2023-02-05T01:19:41.991Z,102090.69
2023-02-05T01:22:11.579Z,102085.57
2023-02-05T01:24:39.884Z,102088.13
2023-02-05T01:27:07.869Z,102080.55
2023-02-05T01:29:35.885Z,102075.51
2023-02-05T01:32:04.283Z,102078.02
2023-02-05T01:34:32.296Z,102074.23
2023-02-05T01:37:00.262Z,102071.55
2023-02-05T01:39:28.203Z,102074.87
2023-02-05T01:41:56.545Z,102069.34
2023-02-05T01:44:25.286Z,102070.50
2023-02-05T01:46:55.293Z,102072.95
2023-02-05T01:49:43.821Z,102075.70
2023-02-05T01:52:17.001Z,102079.10
2023-02-05T01:54:48.841Z,102078.41
2023-02-05T01:57:24.813Z,102079.05
2023-02-05T01:59:53.360Z,102075.00
2023-02-05T02:02:21.511Z,102070.23
2023-02-05T02:04:55.830Z,102074.69
2023-02-05T02:07:25.300Z,102072.36
2023-02-05T02:09:55.817Z,102071.47
2023-02-05T02:12:28.903Z,102072.57
2023-02-05T02:15:01.154Z,102070.55
2023-02-05T02:17:34.560Z,102069.73
2023-02-05T02:20:06.955Z,102071.60
2023-02-05T02:22:48.200Z,102077.99
2023-02-05T02:25:38.828Z,102077.58
2023-02-05T02:28:29.047Z,102078.49
2023-02-05T02:31:12.605Z,102083.12
2023-02-05T02:34:00.517Z,102077.89
2023-02-05T02:36:47.721Z,102086.13
2023-02-05T02:39:44.633Z,102085.74
2023-02-05T02:42:18.831Z,102090.98
2023-02-05T02:44:54.010Z,102100.29
2023-02-05T02:47:25.840Z,102102.36
2023-02-05T02:50:02.234Z,102105.74
2023-02-05T02:52:36.431Z,102106.58
2023-02-05T02:55:09.600Z,102109.55
2023-02-05T02:57:44.851Z,102106.58
2023-02-05T03:00:23.253Z,102111.62
2023-02-05T03:03:01.350Z,102112.33
2023-02-05T03:05:33.736Z,102108.55
2023-02-05T03:08:20.876Z,102106.49
2023-02-05T03:11:04.892Z,102110.79
2023-02-05T03:13:36.862Z,102111.43
2023-02-05T03:16:08.790Z,102111.02
2023-02-05T03:18:39.886Z,102115.09
2023-02-05T03:21:31.913Z,102112.11
2023-02-05T03:24:03.908Z,102114.53
2023-02-05T03:26:36.904Z,102117.09
2023-02-05T03:29:16.319Z,102112.75
2023-02-05T03:32:42.908Z,102108.18
2023-02-05T03:36:00.902Z,102108.23
2023-02-05T03:39:36.907Z,102106.46
2023-02-05T03:42:34.937Z,102102.74
2023-02-05T03:45:32.089Z,102092.95
2023-02-05T03:48:39.681Z,102091.59
2023-02-05T03:51:37.415Z,102092.20
2023-02-05T03:54:23.946Z,102094.48
2023-02-05T04:04:27.511Z,102092.49
2023-02-05T04:06:57.218Z,102094.70
2023-02-05T04:09:25.403Z,102091.35
2023-02-05T04:11:54.074Z,102089.60
2023-02-05T04:14:22.080Z,102087.48
2023-02-05T04:16:50.220Z,102091.17
2023-02-05T04:19:19.414Z,102089.16
2023-02-05T04:21:47.895Z,102084.17
2023-02-05T04:24:16.252Z,102083.05
2023-02-05T04:26:45.373Z,102083.46
2023-02-05T04:29:13.748Z,102082.46
2023-02-05T04:31:45.255Z,102086.60
2023-02-05T04:34:13.690Z,102090.65
2023-02-05T04:36:42.087Z,102097.29
2023-02-05T04:39:10.332Z,102105.90
2023-02-05T04:41:38.406Z,102111.06
2023-02-05T04:44:07.016Z,102112.61
2023-02-05T04:46:35.261Z,102115.68
2023-02-05T04:49:03.488Z,102116.78
2023-02-05T04:51:31.519Z,102116.41
2023-02-05T04:53:59.582Z,102116.42
2023-02-05T04:56:28.264Z,102121.21
2023-02-05T04:58:56.459Z,102116.59
2023-02-05T05:01:24.507Z,102112.75
2023-02-05T05:03:52.686Z,102117.02
2023-02-05T05:06:20.960Z,102120.20
2023-02-05T05:08:49.028Z,102127.69
2023-02-05T05:11:19.695Z,102125.69
2023-02-05T05:13:49.591Z,102128.04
2023-02-05T05:16:18.418Z,102128.98
2023-02-05T05:18:46.497Z,102127.61
2023-02-05T05:21:14.617Z,102127.55
2023-02-05T05:23:42.947Z,102131.17
2023-02-05T05:26:12.487Z,102126.80
2023-02-05T05:28:40.766Z,102134.70
2023-02-05T05:31:17.334Z,102133.92
2023-02-05T05:33:46.045Z,102133.67
2023-02-05T05:36:14.626Z,102136.56
2023-02-05T05:38:43.842Z,102136.23
2023-02-05T05:41:41.091Z,102136.80
2023-02-05T05:44:10.364Z,102143.05
2023-02-05T05:46:38.528Z,102144.52
2023-02-05T05:49:06.706Z,102143.48
2023-02-05T05:51:34.804Z,102141.83
2023-02-05T05:54:02.954Z,102141.40
2023-02-05T05:56:31.023Z,102137.55
2023-02-05T05:58:59.074Z,102137.23
2023-02-05T06:01:27.773Z,102145.94
2023-02-05T06:03:56.059Z,102152.28
2023-02-05T06:06:24.223Z,102157.23
2023-02-05T06:08:52.288Z,102164.35
2023-02-05T06:11:20.359Z,102166.82
2023-02-05T06:13:48.431Z,102173.64
2023-02-05T06:16:16.562Z,102177.59
2023-02-05T06:18:44.790Z,102171.65
2023-02-05T06:21:12.877Z,102178.30
2023-02-05T06:23:40.927Z,102180.94
2023-02-05T06:26:09.031Z,102188.94
2023-02-05T06:28:37.164Z,102192.27
2023-02-05T06:31:05.714Z,102196.44
2023-02-05T06:33:33.922Z,102196.05
2023-02-05T06:36:02.098Z,102194.55
2023-02-05T06:38:30.374Z,102204.73
2023-02-05T06:40:58.464Z,102201.50
2023-02-05T06:43:26.653Z,102204.92
2023-02-05T06:45:55.925Z,102210.06
2023-02-05T06:48:23.984Z,102210.54
2023-02-05T06:50:52.064Z,102207.41
2023-02-05T06:53:20.242Z,102212.58
2023-02-05T06:55:48.410Z,102213.59
2023-02-05T06:58:16.397Z,102216.31
2023-02-05T07:00:44.312Z,102214.42
2023-02-05T07:03:12.310Z,102212.42
2023-02-05T07:05:40.836Z,102215.86
2023-02-05T07:08:09.177Z,102212.73
2023-02-05T07:10:37.347Z,102210.16
2023-02-05T07:13:06.077Z,102216.38
2023-02-05T07:15:37.684Z,102216.41
2023-02-05T07:18:06.783Z,102220.96
2023-02-05T07:20:34.977Z,102224.41
2023-02-05T07:23:03.130Z,102229.02
2023-02-05T07:25:36.646Z,102232.15
2023-02-05T07:28:06.902Z,102235.23
2023-02-05T07:30:36.377Z,102235.75
2023-02-05T07:33:04.942Z,102235.52
2023-02-05T07:35:37.345Z,102230.94
2023-02-05T07:38:06.622Z,102234.15
2023-02-05T07:40:34.756Z,102231.51
2023-02-05T07:43:02.798Z,102229.25
2023-02-05T07:45:30.917Z,102228.39
2023-02-05T07:47:59.014Z,102229.64
2023-02-05T07:50:26.960Z,102230.13
2023-02-05T07:52:55.193Z,102231.92
2023-02-05T07:55:23.510Z,102233.74
2023-02-05T07:57:51.482Z,102236.12
2023-02-05T08:00:20.021Z,102234.42
2023-02-05T08:02:48.152Z,102230.13
2023-02-05T08:05:16.243Z,102233.89
2023-02-05T08:07:44.221Z,102239.42
2023-02-05T08:10:14.785Z,102239.72
2023-02-05T08:12:42.715Z,102243.73
2023-02-05T08:15:11.113Z,102246.86
2023-02-05T08:17:39.036Z,102243.77
2023-02-05T08:20:07.903Z,102243.69
2023-02-05T08:22:38.553Z,102245.00
2023-02-05T08:25:09.229Z,102249.71
2023-02-05T08:27:38.060Z,102256.68
2023-02-05T08:30:09.122Z,102259.17
2023-02-05T08:32:37.185Z,102260.84
2023-02-05T08:35:06.060Z,102263.34
2023-02-05T08:37:34.804Z,102269.80
2023-02-05T08:40:02.916Z,102271.24
2023-02-05T08:42:30.890Z,102274.80
2023-02-05T08:45:00.118Z,102276.98
2023-02-05T08:47:28.293Z,102274.59
2023-02-05T08:49:56.430Z,102280.75
2023-02-05T08:52:24.401Z,102287.52
2023-02-05T08:54:52.619Z,102290.17
2023-02-05T08:57:20.543Z,102294.66
2023-02-05T08:59:48.717Z,102295.96
2023-02-05T09:02:16.831Z,102297.41
2023-02-05T09:04:45.091Z,102302.23
2023-02-05T09:07:13.133Z,102303.38
2023-02-05T09:09:41.409Z,102307.98
2023-02-05T09:12:10.918Z,102310.94
2023-02-05T09:14:39.595Z,102312.21
2023-02-05T09:17:09.567Z,102317.39
2023-02-05T09:19:39.736Z,102321.19
2023-02-05T09:22:09.073Z,102317.46
2023-02-05T09:24:37.984Z,102320.65
2023-02-05T09:27:06.749Z,102321.39
2023-02-05T09:29:34.988Z,102321.09
2023-02-05T09:32:03.062Z,102328.39
2023-02-05T09:34:32.482Z,102329.13
2023-02-05T09:37:00.492Z,102325.35
2023-02-05T09:40:12.296Z,102324.48
2023-02-05T09:42:21.409Z,102330.02
2023-02-05T09:45:02.026Z,102331.04
2023-02-05T09:47:36.853Z,102335.08
2023-02-05T09:50:26.155Z,102333.56
2023-02-05T09:52:59.941Z,102339.98
2023-02-05T09:55:31.446Z,102336.88
2023-02-05T09:58:04.874Z,102337.60
2023-02-05T10:01:14.983Z,102334.30
2023-02-05T10:03:56.305Z,102330.98
2023-02-05T10:06:39.843Z,102334.46
2023-02-05T10:09:24.684Z,102332.60
2023-02-05T10:11:57.107Z,102336.92
2023-02-05T10:14:31.515Z,102335.23
2023-02-05T10:17:21.991Z,102334.36
2023-02-05T10:20:23.396Z,102339.06
2023-02-05T10:23:29.354Z,102337.59
2023-02-05T10:26:14.165Z,102338.49
2023-02-05T10:29:16.484Z,102328.19
2023-02-05T10:32:03.969Z,102324.69
2023-02-05T10:34:42.018Z,102327.98
2023-02-05T10:37:18.718Z,102324.39
2023-02-05T10:39:49.630Z,102327.20
2023-02-05T10:42:17.552Z,102322.00
2023-02-05T10:44:49.311Z,102318.95
2023-02-05T10:47:25.404Z,102323.98
2023-02-05T10:50:46.190Z,102327.80
2023-02-05T10:53:18.138Z,102321.05
2023-02-05T10:55:46.264Z,102322.41
2023-02-05T10:58:38.105Z,102322.48
2023-02-05T11:01:20.203Z,102327.30
2023-02-05T11:03:52.253Z,102316.91
2023-02-05T11:06:22.149Z,102308.60
2023-02-05T11:08:50.394Z,102309.80
2023-02-05T11:11:25.142Z,102309.02
2023-02-05T11:14:21.056Z,102316.67
2023-02-05T11:16:49.114Z,102305.15
2023-02-05T11:19:27.097Z,102301.08
2023-02-05T11:21:57.749Z,102296.70
2023-02-05T11:24:25.819Z,102294.45
2023-02-05T11:27:26.510Z,102294.38
2023-02-05T11:29:57.063Z,102288.73
2023-02-05T11:32:37.542Z,102289.84
2023-02-05T11:35:25.894Z,102287.79
2023-02-05T11:38:06.719Z,102288.27
2023-02-05T11:40:36.404Z,102290.02
2023-02-05T11:43:16.233Z,102291.45
2023-02-05T11:45:51.080Z,102295.31
2023-02-05T11:48:37.773Z,102290.70
2023-02-05T11:51:10.136Z,102293.39
2023-02-05T11:53:44.369Z,102293.75
2023-02-05T11:56:21.476Z,102290.08
2023-02-05T11:59:01.814Z,102294.55
2023-02-05T12:01:34.027Z,102295.14
2023-02-05T12:04:11.301Z,102292.20
2023-02-05T12:06:53.521Z,102299.61
2023-02-05T12:09:24.242Z,102298.32
2023-02-05T12:12:38.564Z,102303.52
2023-02-05T12:23:00.515Z,102281.27
2023-02-05T12:25:42.582Z,102280.89
2023-02-05T12:28:34.946Z,102280.93
2023-02-05T12:31:17.210Z,102280.98
2023-02-05T12:34:00.346Z,102277.70
2023-02-05T12:36:59.210Z,102281.70
2023-02-05T12:39:27.244Z,102283.63
2023-02-05T12:42:13.335Z,102286.62
2023-02-05T12:44:51.848Z,102287.34
2023-02-05T12:47:41.939Z,102285.45
2023-02-05T12:50:32.297Z,102285.42
2023-02-05T12:53:18.624Z,102286.65
2023-02-05T12:56:06.977Z,102287.13
2023-02-05T12:58:43.553Z,102288.86
2023-02-05T13:01:18.181Z,102286.67
2023-02-05T13:03:51.638Z,102285.05
2023-02-05T13:06:42.438Z,102285.81
2023-02-05T13:09:20.742Z,102290.14
2023-02-05T13:12:01.024Z,102283.27
2023-02-05T13:14:40.479Z,102277.86
2023-02-05T13:17:17.406Z,102278.95
2023-02-05T13:19:51.832Z,102275.73
2023-02-05T13:22:44.320Z,102272.34
2023-02-05T13:25:38.226Z,102272.02
2023-02-05T13:28:38.626Z,102277.30
2023-02-05T13:31:17.406Z,102283.30
2023-02-05T13:33:45.755Z,102286.41
2023-02-05T13:36:40.832Z,102294.37
2023-02-05T13:39:34.306Z,102295.00
2023-02-05T13:42:06.459Z,102297.38
2023-02-05T13:44:55.937Z,102291.75
2023-02-05T13:47:42.027Z,102290.95
2023-02-05T13:50:28.364Z,102289.55
2023-02-05T13:53:13.945Z,102293.76
2023-02-05T13:56:10.650Z,102291.58
2023-02-05T13:59:04.988Z,102287.90
2023-02-05T14:01:42.757Z,102276.30
2023-02-05T14:04:19.202Z,102273.83
2023-02-05T14:07:18.002Z,102275.46
2023-02-05T14:10:01.139Z,102279.14
2023-02-05T14:12:35.637Z,102280.91
2023-02-05T14:15:16.440Z,102280.69
2023-02-05T14:17:44.398Z,102280.88
2023-02-05T14:20:24.346Z,102288.89
2023-02-05T14:23:03.665Z,102294.69
2023-02-05T14:25:46.276Z,102294.33
2023-02-05T14:28:17.866Z,102297.40
2023-02-05T14:30:59.447Z,102296.36
2023-02-05T14:33:35.658Z,102299.90
2023-02-05T14:36:16.181Z,102299.64
2023-02-05T14:38:59.502Z,102300.47
2023-02-05T14:41:42.091Z,102299.65
2023-02-05T14:44:13.057Z,102305.52
2023-02-05T14:46:52.525Z,102305.27
2023-02-05T14:49:28.530Z,102309.36
2023-02-05T14:52:03.492Z,102307.48
2023-02-05T14:54:42.463Z,102310.08
2023-02-05T14:57:26.632Z,102310.45
2023-02-05T15:00:00.022Z,102312.66
2023-02-05T15:03:05.160Z,102311.23
2023-02-05T15:05:37.054Z,102317.05
2023-02-05T15:08:21.568Z,102320.13
2023-02-05T15:11:03.375Z,102320.45
2023-02-05T15:13:32.382Z,102323.60
2023-02-05T15:16:12.464Z,102325.23
2023-02-05T15:18:51.872Z,102332.30
2023-02-05T15:21:19.819Z,102338.67
2023-02-05T15:23:53.708Z,102340.48
2023-02-05T15:26:39.414Z,102346.38
2023-02-05T15:29:16.800Z,102349.98
2023-02-05T15:32:36.378Z,102349.23
2023-02-05T15:35:10.820Z,102350.48
2023-02-05T15:37:45.359Z,102348.25
2023-02-05T15:40:25.111Z,102346.52
2023-02-05T15:42:59.486Z,102345.19
2023-02-05T15:45:27.559Z,102347.40
2023-02-05T15:47:59.931Z,102351.05
2023-02-05T15:50:30.574Z,102350.89
2023-02-05T15:52:59.757Z,102353.44
2023-02-05T15:55:29.231Z,102355.48
2023-02-05T15:58:04.743Z,102358.14
2023-02-05T16:00:37.923Z,102364.66
2023-02-05T16:03:06.951Z,102368.27
2023-02-05T16:05:35.438Z,102367.64
2023-02-05T16:08:05.690Z,102368.96
2023-02-05T16:10:35.134Z,102364.02
2023-02-05T16:13:06.184Z,102365.05
2023-02-05T16:15:43.383Z,102360.42
2023-02-05T16:18:19.102Z,102355.63
2023-02-05T16:20:53.620Z,102358.38
2023-02-05T16:23:44.672Z,102357.90
2023-02-05T16:26:21.784Z,102357.11
2023-02-05T16:28:58.277Z,102350.90
2023-02-05T16:31:28.359Z,102355.23
2023-02-05T16:34:04.245Z,102359.46
2023-02-05T16:36:37.105Z,102363.65
2023-02-05T16:39:16.848Z,102369.45
2023-02-05T16:41:45.575Z,102370.52
2023-02-05T16:44:30.219Z,102375.94
2023-02-05T16:47:18.167Z,102375.74
2023-02-05T16:49:48.479Z,102378.83
2023-02-05T16:52:32.026Z,102382.17
2023-02-05T16:55:29.038Z,102386.83
2023-02-05T16:58:05.560Z,102393.42
2023-02-05T17:00:34.492Z,102393.14
2023-02-05T17:03:16.502Z,102392.55
2023-02-05T17:05:44.981Z,102395.31
2023-02-05T17:08:13.057Z,102400.45
2023-02-05T17:10:55.359Z,102404.06
2023-02-05T17:13:44.569Z,102403.05
2023-02-05T17:16:32.770Z,102397.16
2023-02-05T17:19:04.636Z,102393.08
2023-02-05T17:21:34.960Z,102390.00
2023-02-05T17:24:09.392Z,102388.11
2023-02-05T17:26:41.062Z,102388.30
2023-02-05T17:29:15.825Z,102389.20
2023-02-05T17:31:44.258Z,102385.42
2023-02-05T17:34:16.161Z,102387.85
2023-02-05T17:36:45.112Z,102390.55
2023-02-05T17:39:13.257Z,102385.27
2023-02-05T17:42:00.482Z,102388.52
2023-02-05T17:44:28.713Z,102383.38
2023-02-05T17:46:59.162Z,102386.19
2023-02-05T17:49:27.604Z,102393.52
2023-02-05T17:51:55.951Z,102399.39
2023-02-05T17:54:25.734Z,102407.81
2023-02-05T17:56:56.937Z,102416.88
2023-02-05T17:59:26.266Z,102426.25
2023-02-05T18:01:54.530Z,102430.13
2023-02-05T18:04:22.752Z,102428.97
2023-02-05T18:06:51.025Z,102429.23
2023-02-05T18:09:20.133Z,102428.53
2023-02-05T18:11:48.291Z,102432.17
2023-02-05T18:14:16.292Z,102438.73
2023-02-05T18:16:44.921Z,102442.41
2023-02-05T18:19:14.143Z,102435.91
2023-02-05T18:21:42.431Z,102440.77
2023-02-05T18:24:10.515Z,102441.24
2023-02-05T18:26:38.583Z,102445.18
2023-02-05T18:29:06.642Z,102437.14
2023-02-05T18:31:35.435Z,102436.86
2023-02-05T18:34:03.907Z,102440.05
2023-02-05T18:36:31.976Z,102441.80
2023-02-05T18:39:00.250Z,102449.08
2023-02-05T18:41:28.728Z,102446.90
2023-02-05T18:43:57.802Z,102443.48
2023-02-05T18:46:25.928Z,102442.60
2023-02-05T18:48:54.916Z,102443.67
2023-02-05T18:51:23.672Z,102441.65
2023-02-05T18:53:52.584Z,102436.45
2023-02-05T18:56:26.698Z,102435.31
2023-02-05T18:59:03.072Z,102435.50
2023-02-05T19:01:32.157Z,102434.95
2023-02-05T19:04:02.369Z,102429.70
2023-02-05T19:06:30.856Z,102424.40
2023-02-05T19:09:00.646Z,102430.75
2023-02-05T19:11:30.266Z,102433.77
2023-02-05T19:14:00.613Z,102429.80
2023-02-05T19:16:32.374Z,102435.45
2023-02-05T19:19:00.990Z,102433.85
2023-02-05T19:21:30.767Z,102432.70
2023-02-05T19:24:05.668Z,102428.55
2023-02-05T19:26:37.160Z,102433.81
2023-02-05T19:29:08.474Z,102439.57
2023-02-05T19:31:37.399Z,102437.73
2023-02-05T19:34:06.450Z,102433.33
2023-02-05T19:36:34.827Z,102436.39
2023-02-05T19:39:06.340Z,102440.11
2023-02-05T19:41:36.047Z,102443.01
2023-02-05T19:44:07.538Z,102438.89
2023-02-05T19:46:42.105Z,102437.30
2023-02-05T19:49:16.170Z,102438.98
2023-02-05T19:51:46.602Z,102445.11
2023-02-05T19:54:15.488Z,102449.89
2023-02-05T19:56:44.544Z,102456.30
2023-02-05T19:59:13.292Z,102458.61
2023-02-05T20:01:44.826Z,102460.27
2023-02-05T20:04:18.528Z,102465.34
2023-02-05T20:06:48.117Z,102468.30
2023-02-05T20:09:17.245Z,102468.54
2023-02-05T20:11:47.970Z,102466.52
2023-02-05T20:14:17.580Z,102467.23
2023-02-05T20:16:45.971Z,102477.44
2023-02-05T20:19:16.791Z,102487.44
2023-02-05T20:21:46.701Z,102481.98
2023-02-05T20:24:16.640Z,102480.96
2023-02-05T20:26:48.551Z,102481.70
2023-02-05T20:29:35.486Z,102482.98
2023-02-05T20:32:04.272Z,102489.44
2023-02-05T20:34:35.875Z,102490.20
2023-02-05T20:37:07.000Z,102489.83
2023-02-05T20:39:39.720Z,102499.93
2023-02-05T20:42:10.752Z,102506.39
2023-02-05T20:44:39.425Z,102504.67
2023-02-05T20:47:11.282Z,102501.95
2023-02-05T20:49:41.739Z,102502.06
2023-02-05T20:52:10.820Z,102503.23
2023-02-05T20:54:39.238Z,102509.55
2023-02-05T20:57:08.048Z,102508.34
2023-02-05T20:59:37.331Z,102507.84
2023-02-05T21:02:05.746Z,102511.21
2023-02-05T21:04:34.352Z,102519.50
2023-02-05T21:07:02.452Z,102524.45
2023-02-05T21:09:30.527Z,102526.55
2023-02-05T21:11:58.595Z,102524.64
2023-02-05T21:14:26.667Z,102524.02
2023-02-05T21:16:54.662Z,102531.11
2023-02-05T21:19:24.175Z,102527.60
2023-02-05T21:21:53.132Z,102530.94
2023-02-05T21:24:21.713Z,102530.39
2023-02-05T21:26:50.142Z,102532.30
2023-02-05T21:29:20.856Z,102534.47
2023-02-05T21:31:53.181Z,102537.85
2023-02-05T21:34:27.088Z,102546.27
2023-02-05T21:36:56.660Z,102556.39
2023-02-05T21:39:26.221Z,102558.84
2023-02-05T21:41:55.052Z,102558.41
2023-02-05T21:44:24.402Z,102563.58
2023-02-05T21:46:54.858Z,102560.23
2023-02-05T21:49:23.310Z,102557.84
2023-02-05T21:51:53.494Z,102560.45
2023-02-05T21:54:25.350Z,102561.50
2023-02-05T21:56:54.514Z,102561.41
2023-02-05T21:59:23.420Z,102564.01
2023-02-05T22:01:51.666Z,102560.91
2023-02-05T22:04:20.100Z,102559.52
2023-02-05T22:06:48.224Z,102558.27
2023-02-05T22:09:17.018Z,102562.55
2023-02-05T22:11:45.685Z,102564.06
2023-02-05T22:14:13.767Z,102569.71
2023-02-05T22:16:42.706Z,102571.19
2023-02-05T22:19:11.232Z,102576.61
2023-02-05T22:21:42.398Z,102571.90
2023-02-05T22:24:15.012Z,102573.69
2023-02-05T22:26:44.669Z,102580.58
2023-02-05T22:29:15.407Z,102582.21
2023-02-05T22:31:45.515Z,102579.81
2023-02-05T22:34:13.795Z,102583.70
2023-02-05T22:36:42.121Z,102587.31
2023-02-05T22:39:10.347Z,102594.10
2023-02-05T22:41:41.092Z,102592.36
2023-02-05T22:44:11.490Z,102585.09
2023-02-05T22:46:42.722Z,102586.33
2023-02-05T22:49:13.320Z,102582.45
2023-02-05T22:51:42.057Z,102577.14
2023-02-05T22:54:12.307Z,102579.42
2023-02-05T22:56:42.019Z,102581.75
2023-02-05T22:59:10.101Z,102579.89
2023-02-05T23:01:39.181Z,102574.45
2023-02-05T23:04:09.373Z,102577.68
2023-02-05T23:06:40.739Z,102576.27
2023-02-05T23:09:13.808Z,102572.75
2023-02-05T23:11:42.635Z,102574.92
2023-02-05T23:14:12.263Z,102572.39
2023-02-05T23:16:43.559Z,102568.21
2023-02-05T23:19:16.042Z,102571.71
2023-02-05T23:21:44.711Z,102571.07
2023-02-05T23:24:13.433Z,102571.71
2023-02-05T23:26:45.602Z,102570.95
2023-02-05T23:29:15.651Z,102571.41
2023-02-05T23:31:44.071Z,102573.02
2023-02-05T23:34:12.579Z,102572.80
2023-02-05T23:36:41.255Z,102568.58
2023-02-05T23:39:09.613Z,102566.06
2023-02-05T23:41:37.887Z,102568.41
2023-02-05T23:44:13.740Z,102564.95
2023-02-05T23:46:43.462Z,102561.90
2023-02-05T23:49:12.443Z,102560.89
2023-02-05T23:51:40.965Z,102558.05
2023-02-05T23:54:11.290Z,102554.63
2023-02-05T23:56:40.046Z,102557.89
2023-02-05T23:59:09.884Z,102557.83
